Accueil
METAR-TAF:

METAR-TAF

Aéroports :

Weno, Weno Island, Micronésie

Aéroport international de Chuuk

latitude: 07-28N, longitude: 151-51E, altitude: 3 m

Observation

Le bulletin a été fait il y a 25 minutes, à 08:53 UTC
Vent 8 kt de nord-est
Température 29°C
Humidité 84%
Pression 1009 hPa
Visibilité: 24.1 km
Quelques nuages à une hauteur de 1400 ft
Nuages épars à une hauteur de 12000 ft
Nuages fragmentés à une hauteur de 28000 ft

METAR: PTKK 260853Z 05008KT 15SM FEW014 SCT120 BKN280 29/26 A2979 RMK SLP089 8/171 T02890259 52010

Heure: 19:18 (09:18 UTC)

Prévision

Le bulletin a été fait il y a 3 heures et 58 minutes, à 05:20 UTC
Prévision valable du 26 à 06 UTC au 27 à 06 UTC
Vent 7 kt de nord-est
Visibilité: 10 km
Nuages épars à une hauteur de 1400 ft
Nuages épars à une hauteur de 12000 ft
Ciel couvert à une hauteur de 28000 ft
averses à proximité

TAF: PTKK 260520Z 2606/2706 04007KT P6SM VCSH SCT014 SCT120 OVC280

Observations et prévisions météorologiques de plus de 4000 aéroports (messages METAR et TAF).

Les stations disponibles sont représentées par des disques jaunes et rouges sur la carte.

Passer la souris dessus pour voir le nom de la station.

Cliquer dessus pour voir les observations et prévisions météorologiques.

Pour changer de carte: cliquez sur les boutons verts avec une croix noire pour zoomer, sur le bouton vert avec un tiret pour effectuer un zoom arrière, ou sur les flèches vertes pour les cartes adjacentes.


METAR-TAF: